Pearcot, Washington
Current Conditions -  °F | °C
As of 1:55 PM on Sunday 25 Jan 2015 (Local Time) from KEAT Reporting Station
Overcast Overcast  
Wind Chill: 36°   Ceiling: 300
Heat Index: 36°   Visibility: 9mi
Dew Point: 34°   Wind: 0mph
Humidity: 93%   Direction: NA
Pressure: 30.21"   Gusts: NA
Location:  47.3635°N, 120.348°W
Report Text: KEAT 252155Z AUTO 00000KT 9SM OVC003 02/01 A3021 RMK AO2 SLP240 T00220011 $
Loading
Personal Weather Stations






























Interactive Weather Map New forecast layout! Learn more

10-Day Weather Forecast

Advertisements
Track Severe Weather on mobile